Time;durP1;ratioP1;P1;durP2;ratioP2;P2;SDS_P1;SDS_P2;PMS_P1;PMS_P2;Temp;Humidity;BMP_temperature;BMP_pressure;BME280_temperature;BME280_humidity;BME280_pressure;Samples;Min_cycle;Max_cycle;Signal;HPM_P1;HPM_P2
2020/12/07 00:01:32;;;;;;;38.40;20.10;;;;;;;4.87;85.66;97538.13;5073199;28;20210;-65
2020/12/07 00:03:58;;;;;;;32.83;19.95;;;;;;;4.90;85.43;97545.91;5072712;28;20255;-65
2020/12/07 00:06:25;;;;;;;30.15;17.65;;;;;;;4.71;85.68;97541.81;5072975;28;20682;-65
2020/12/07 00:08:52;;;;;;;28.77;17.58;;;;;;;4.60;86.79;97536.34;5072892;28;20552;-66
2020/12/07 00:11:18;;;;;;;33.20;18.73;;;;;;;4.69;86.54;97535.72;5072429;28;20215;-65
2020/12/07 00:13:44;;;;;;;36.40;17.60;;;;;;;4.50;86.90;97532.56;5071572;28;20197;-65
2020/12/07 00:16:10;;;;;;;35.70;18.55;;;;;;;4.48;87.54;97526.50;5071550;28;20276;-65
2020/12/07 00:18:37;;;;;;;29.02;18.85;;;;;;;4.56;87.40;97533.00;5071786;28;20207;-65
2020/12/07 00:21:07;;;;;;;35.70;20.30;;;;;;;4.57;87.36;97520.56;5072476;28;20627;-65
2020/12/07 00:23:34;;;;;;;31.95;18.67;;;;;;;4.62;87.12;97522.94;5072438;28;20601;-65
2020/12/07 00:26:00;;;;;;;32.28;19.33;;;;;;;4.41;87.55;97530.50;5072229;28;20273;-65
2020/12/07 00:28:26;;;;;;;31.55;19.83;;;;;;;4.32;88.40;97532.84;5072085;28;20193;-65
2020/12/07 00:30:52;;;;;;;32.72;19.88;;;;;;;4.33;88.51;97534.53;5072473;28;20221;-65
2020/12/07 00:33:19;;;;;;;33.72;20.52;;;;;;;4.36;88.51;97531.69;5072524;28;20658;-65
2020/12/07 00:35:45;;;;;;;32.70;21.05;;;;;;;4.46;88.50;97531.09;5072473;28;20277;-65
2020/12/07 00:38:11;;;;;;;36.53;20.75;;;;;;;4.56;87.80;97537.50;5071934;28;20233;-66
2020/12/07 00:40:38;;;;;;;38.35;21.90;;;;;;;4.49;87.54;97545.03;5072247;28;20236;-64
2020/12/07 00:43:05;;;;;;;36.85;22.20;;;;;;;4.48;87.72;97532.69;5071661;28;20188;-64
2020/12/07 00:45:31;;;;;;;32.95;19.88;;;;;;;4.57;87.26;97533.91;5072402;28;20522;-65
2020/12/07 00:47:57;;;;;;;34.83;19.80;;;;;;;4.52;87.01;97533.31;5071825;28;20209;-65
2020/12/07 00:50:24;;;;;;;33.30;20.67;;;;;;;4.31;87.99;97530.28;5071838;28;20210;-66
2020/12/07 00:52:50;;;;;;;30.15;17.90;;;;;;;4.44;87.64;97525.84;5072192;28;20187;-65
2020/12/07 00:55:17;;;;;;;33.45;20.20;;;;;;;4.52;87.02;97533.31;5072140;28;20220;-65
2020/12/07 00:57:44;;;;;;;29.63;17.70;;;;;;;4.48;86.92;97535.34;5071785;28;20296;-65
2020/12/07 01:00:11;;;;;;;33.53;18.70;;;;;;;4.39;86.84;97536.81;5071654;28;20239;-65
2020/12/07 01:02:37;;;;;;;29.73;17.80;;;;;;;4.44;86.59;97535.66;5072132;28;20188;-65
2020/12/07 01:05:04;;;;;;;34.42;19.73;;;;;;;4.51;86.29;97534.28;5072072;28;20190;-65
2020/12/07 01:07:31;;;;;;;29.90;18.42;;;;;;;4.23;87.36;97533.44;5072041;28;20659;-65
2020/12/07 01:09:57;;;;;;;32.75;19.13;;;;;;;4.24;87.83;97545.81;5071768;28;20256;-65
2020/12/07 01:12:23;;;;;;;32.72;18.63;;;;;;;4.30;87.74;97545.41;5071918;28;20212;-66
2020/12/07 01:14:51;;;;;;;36.90;19.45;;;;;;;4.24;87.79;97544.94;5071714;28;20250;-66
2020/12/07 01:17:18;;;;;;;33.08;18.60;;;;;;;4.17;88.14;97548.00;5072173;28;20599;-65
2020/12/07 01:19:44;;;;;;;32.13;18.60;;;;;;;4.18;88.06;97552.41;5071482;28;20224;-64
2020/12/07 01:22:11;;;;;;;31.05;19.38;;;;;;;4.19;88.29;97545.25;5071611;28;20209;-64
2020/12/07 01:24:37;;;;;;;30.85;20.27;;;;;;;4.28;87.65;97547.31;5071976;28;20713;-66
2020/12/07 01:27:05;;;;;;;33.17;19.95;;;;;;;4.43;87.28;97533.94;5073396;28;20276;-66
2020/12/07 01:29:31;;;;;;;35.42;20.95;;;;;;;4.36;87.12;97546.81;5075863;28;20231;-66
2020/12/07 01:31:58;;;;;;;28.83;17.98;;;;;;;4.42;86.81;97548.22;5076005;28;20611;-65
2020/12/07 01:34:24;;;;;;;32.00;19.77;;;;;;;4.27;87.13;97556.25;5075483;28;20201;-65
2020/12/07 01:36:50;;;;;;;29.73;19.13;;;;;;;4.41;87.63;97558.03;5075515;28;20204;-65
2020/12/07 01:39:16;;;;;;;31.73;18.63;;;;;;;4.37;86.53;97556.53;5075321;28;20298;-66
2020/12/07 01:41:42;;;;;;;35.55;19.85;;;;;;;4.33;87.18;97563.00;5075500;28;20291;-65
2020/12/07 01:44:08;;;;;;;32.88;19.77;;;;;;;4.52;86.06;97565.31;5075474;28;20272;-65
2020/12/07 01:46:36;;;;;;;34.47;20.00;;;;;;;4.52;86.23;97557.31;5075468;28;20686;-64
2020/12/07 01:49:04;;;;;;;27.48;17.20;;;;;;;4.50;86.52;97573.41;5075564;28;20280;-65
2020/12/07 01:51:31;;;;;;;34.33;18.42;;;;;;;4.70;85.06;97569.41;5075650;28;20191;-65
2020/12/07 01:53:57;;;;;;;30.75;18.08;;;;;;;4.59;85.60;97570.16;5075683;28;20615;-66
2020/12/07 01:56:27;;;;;;;30.17;17.88;;;;;;;4.74;84.77;97567.41;5074847;28;20282;-66
2020/12/07 01:58:53;;;;;;;31.58;18.13;;;;;;;4.71;84.28;97559.63;5075116;28;20232;-65
2020/12/07 02:01:20;;;;;;;32.33;18.70;;;;;;;4.67;84.52;97558.13;5074973;28;20209;-65
2020/12/07 02:03:46;;;;;;;31.20;18.77;;;;;;;4.56;84.99;97561.47;5075202;28;20638;-65
2020/12/07 02:06:13;;;;;;;26.58;16.25;;;;;;;4.37;86.03;97562.69;5074996;28;20200;-66
2020/12/07 02:08:39;;;;;;;27.13;16.10;;;;;;;4.31;86.82;97563.09;5075029;28;20278;-65
2020/12/07 02:11:05;;;;;;;30.42;16.58;;;;;;;4.33;86.91;97569.19;5075138;28;20712;-65
2020/12/07 02:13:31;;;;;;;30.00;17.67;;;;;;;4.35;86.77;97563.75;5074702;28;20701;-65
2020/12/07 02:16:00;;;;;;;34.20;18.98;;;;;;;4.49;87.04;97560.19;5074854;28;20701;-65
2020/12/07 02:18:26;;;;;;;30.20;18.38;;;;;;;4.51;86.34;97564.44;5074608;28;20280;-65
2020/12/07 02:20:53;;;;;;;27.42;16.73;;;;;;;4.59;85.90;97556.81;5074510;28;20189;-65
2020/12/07 02:23:19;;;;;;;31.60;18.35;;;;;;;4.79;84.37;97555.50;5074625;28;20182;-65
2020/12/07 02:25:45;;;;;;;29.05;17.92;;;;;;;4.83;84.32;97557.94;5074041;28;20190;-66
2020/12/07 02:28:11;;;;;;;25.60;15.10;;;;;;;4.75;84.99;97561.13;5075125;28;20984;-65
2020/12/07 02:30:37;;;;;;;26.02;14.90;;;;;;;4.73;84.24;97552.38;5075261;28;20234;-65
2020/12/07 02:33:03;;;;;;;25.67;16.13;;;;;;;4.60;85.71;97563.00;5074691;28;20204;-66
2020/12/07 02:35:30;;;;;;;27.02;16.67;;;;;;;4.59;85.39;97564.81;5074879;28;20216;-65
2020/12/07 02:37:57;;;;;;;24.75;14.10;;;;;;;4.57;85.08;97564.06;5074005;28;20240;-65
2020/12/07 02:40:23;;;;;;;26.85;14.52;;;;;;;4.53;85.66;97561.69;5074120;28;20308;-65
2020/12/07 02:42:49;;;;;;;26.77;15.68;;;;;;;4.41;86.15;97566.03;5074076;28;20198;-65
2020/12/07 02:45:16;;;;;;;26.88;17.00;;;;;;;4.36;87.13;97570.78;5074605;28;20657;-65
2020/12/07 02:47:43;;;;;;;25.95;16.30;;;;;;;4.51;86.30;97550.28;5074647;28;20293;-65
2020/12/07 02:50:11;;;;;;;28.52;16.77;;;;;;;4.48;86.87;97569.16;5074568;28;20285;-65
2020/12/07 02:52:37;;;;;;;29.67;17.10;;;;;;;4.47;86.76;97572.75;5074019;28;20194;-65
2020/12/07 02:55:06;;;;;;;25.95;15.90;;;;;;;4.54;87.08;97560.72;5073773;28;20541;-65
2020/12/07 02:57:32;;;;;;;26.83;16.25;;;;;;;4.74;84.75;97562.06;5073953;28;20551;-65
2020/12/07 02:59:58;;;;;;;21.05;13.25;;;;;;;4.43;85.49;97556.09;5073618;28;20225;-65
2020/12/07 03:02:25;;;;;;;25.05;15.32;;;;;;;4.47;86.33;97559.44;5074317;28;20185;-65
2020/12/07 03:04:51;;;;;;;23.08;14.50;;;;;;;4.58;85.82;97554.25;5074394;28;20609;-66
2020/12/07 03:07:17;;;;;;;29.02;17.70;;;;;;;4.61;85.59;97556.69;5073842;28;20196;-65
2020/12/07 03:09:43;;;;;;;25.98;15.55;;;;;;;4.60;85.10;97552.34;5073424;28;20285;-65
2020/12/07 03:12:11;;;;;;;27.40;15.68;;;;;;;4.56;85.74;97558.81;5073842;28;20190;-65
2020/12/07 03:14:37;;;;;;;25.67;15.45;;;;;;;4.50;86.12;97564.53;5074007;28;20743;-65
2020/12/07 03:17:03;;;;;;;23.27;14.73;;;;;;;4.53;86.00;97557.22;5073957;28;20545;-65
2020/12/07 03:19:30;;;;;;;30.45;15.48;;;;;;;4.57;85.52;97557.88;5073502;28;20224;-65
2020/12/07 03:21:56;;;;;;;26.10;16.05;;;;;;;4.67;85.45;97558.97;5073487;28;20205;-65
2020/12/07 03:24:22;;;;;;;28.73;16.70;;;;;;;4.53;86.54;97567.03;5073366;28;20191;-65
2020/12/07 03:26:48;;;;;;;24.30;16.17;;;;;;;4.65;86.18;97576.00;5073445;28;20289;-65
2020/12/07 03:29:15;;;;;;;25.05;16.55;;;;;;;4.47;86.71;97572.75;5073867;28;20186;-66
2020/12/07 03:31:42;;;;;;;24.15;16.30;;;;;;;4.46;87.16;97573.72;5073805;28;20276;-66
2020/12/07 03:34:09;;;;;;;21.35;14.68;;;;;;;4.54;87.26;97561.56;5073165;28;20240;-66
2020/12/07 03:36:36;;;;;;;26.00;16.30;;;;;;;4.52;87.09;97567.97;5073574;28;20273;-66
2020/12/07 03:39:04;;;;;;;27.48;16.27;;;;;;;4.49;87.55;97573.50;5072776;28;20217;-66
2020/12/07 03:41:30;;;;;;;26.05;17.05;;;;;;;4.54;87.00;97574.06;5073528;28;20209;-66
2020/12/07 03:43:56;;;;;;;23.85;15.20;;;;;;;4.51;87.24;97582.25;5072857;28;20205;-65
2020/12/07 03:46:23;;;;;;;22.33;14.63;;;;;;;4.53;86.66;97583.03;5073565;28;20188;-65
2020/12/07 03:48:49;;;;;;;25.90;15.23;;;;;;;4.68;86.43;97583.78;5072605;28;20191;-65
2020/12/07 03:51:15;;;;;;;24.65;15.38;;;;;;;4.59;86.62;97590.63;5072166;28;20192;-65
2020/12/07 03:53:42;;;;;;;23.55;15.23;;;;;;;4.56;87.27;97583.66;5073135;28;20222;-65
2020/12/07 03:56:09;;;;;;;25.90;16.00;;;;;;;4.56;87.46;97585.47;5072819;28;20208;-66
2020/12/07 03:58:36;;;;;;;24.50;15.05;;;;;;;4.53;87.57;97589.19;5072898;28;20228;-65
2020/12/07 04:01:03;;;;;;;23.05;15.43;;;;;;;4.57;87.10;97581.88;5072790;28;20188;-65
2020/12/07 04:03:30;;;;;;;24.27;14.27;;;;;;;4.76;85.83;97585.00;5072872;28;20194;-66
2020/12/07 04:06:01;;;;;;;22.58;14.45;;;;;;;4.79;85.12;97581.28;5072676;28;20198;-65
2020/12/07 04:08:27;;;;;;;24.27;14.02;;;;;;;5.13;83.00;97584.34;5072829;28;20188;-65
2020/12/07 04:10:53;;;;;;;24.73;14.77;;;;;;;4.97;83.70;97587.19;5072088;28;20691;-65
2020/12/07 04:13:19;;;;;;;25.27;14.43;;;;;;;4.89;84.48;97593.03;5072568;28;20196;-65
2020/12/07 04:15:46;;;;;;;24.38;15.55;;;;;;;4.88;83.67;97590.47;5072530;28;20193;-66
2020/12/07 04:18:12;;;;;;;23.92;13.80;;;;;;;5.10;82.86;97593.41;5072854;28;20202;-66
2020/12/07 04:20:39;;;;;;;17.83;12.43;;;;;;;5.12;82.70;97590.63;5072108;28;20218;-65
2020/12/07 04:23:05;;;;;;;18.58;13.93;;;;;;;5.13;82.15;97587.00;5072681;28;20191;-65
2020/12/07 04:25:31;;;;;;;21.90;14.10;;;;;;;4.84;83.43;97592.50;5072333;28;20187;-65
2020/12/07 04:27:57;;;;;;;21.60;13.35;;;;;;;4.84;84.23;97594.28;5072688;28;20316;-65
2020/12/07 04:30:23;;;;;;;25.15;14.07;;;;;;;4.65;85.80;97587.53;5072649;28;20618;-66
2020/12/07 04:32:49;;;;;;;21.92;14.52;;;;;;;4.70;86.00;97595.22;5072486;28;20643;-65
2020/12/07 04:35:15;;;;;;;26.30;15.02;;;;;;;4.67;86.23;97600.75;5072616;28;20712;-65
2020/12/07 04:37:42;;;;;;;20.65;13.70;;;;;;;5.01;84.23;97594.88;5072578;28;20269;-66
2020/12/07 04:40:09;;;;;;;21.65;13.90;;;;;;;4.99;84.18;97594.13;5072081;28;20207;-65
2020/12/07 04:42:36;;;;;;;20.35;12.73;;;;;;;4.90;84.39;97607.22;5072763;28;20225;-66
2020/12/07 04:45:03;;;;;;;21.50;13.43;;;;;;;4.67;85.22;97608.75;5072352;28;20275;-66
2020/12/07 04:47:30;;;;;;;24.33;13.75;;;;;;;4.57;86.74;97611.19;5072515;28;20691;-66
2020/12/07 04:49:57;;;;;;;21.30;13.80;;;;;;;4.65;86.86;97605.34;5072279;28;20201;-66
2020/12/07 04:52:24;;;;;;;20.40;13.20;;;;;;;4.73;86.37;97606.53;5072322;28;20601;-65
2020/12/07 04:54:52;;;;;;;26.33;14.15;;;;;;;4.67;87.00;97612.28;5072419;28;20188;-65
2020/12/07 04:57:20;;;;;;;19.55;12.68;;;;;;;4.79;86.88;97615.94;5071845;28;20302;-65
2020/12/07 04:59:48;;;;;;;22.00;13.25;;;;;;;4.62;86.93;97614.38;5071678;28;20660;-65
2020/12/07 05:02:14;;;;;;;18.98;12.82;;;;;;;4.80;86.01;97607.00;5071479;28;20274;-65
2020/12/07 05:04:40;;;;;;;22.90;13.45;;;;;;;4.73;86.24;97605.69;5072206;28;20203;-65
2020/12/07 05:07:08;;;;;;;24.65;14.85;;;;;;;4.96;84.68;97604.16;5072132;28;20226;-66
2020/12/07 05:09:36;;;;;;;20.42;12.93;;;;;;;4.78;85.32;97608.91;5071755;28;20190;-65
2020/12/07 05:12:07;;;;;;;20.85;13.75;;;;;;;4.57;86.60;97612.03;5072071;28;20673;-66
2020/12/07 05:14:33;;;;;;;20.85;13.27;;;;;;;4.53;87.00;97609.66;5071813;28;20228;-66
2020/12/07 05:17:00;;;;;;;19.88;12.93;;;;;;;4.74;85.53;97618.06;5072095;28;20235;-65
2020/12/07 05:19:26;;;;;;;24.38;13.80;;;;;;;4.69;86.49;97620.19;5071136;28;20267;-65
2020/12/07 05:21:52;;;;;;;22.10;13.15;;;;;;;4.82;84.83;97615.75;5071656;28;20282;-65
2020/12/07 05:24:19;;;;;;;22.13;13.95;;;;;;;4.53;86.05;97623.00;5071592;28;20273;-65
2020/12/07 05:26:46;;;;;;;19.80;14.82;;;;;;;4.55;87.68;97623.75;5071271;28;20202;-65
2020/12/07 05:29:16;;;;;;;21.65;13.73;;;;;;;4.98;85.42;97620.91;5071249;28;20190;-66
2020/12/07 05:31:43;;;;;;;23.60;13.63;;;;;;;4.96;84.27;97623.69;5072112;28;20620;-65
2020/12/07 05:34:09;;;;;;;22.15;12.85;;;;;;;4.79;85.45;97626.59;5071437;28;20622;-66
2020/12/07 05:36:36;;;;;;;23.05;13.07;;;;;;;4.78;85.83;97632.91;5071539;28;20198;-65
2020/12/07 05:39:03;;;;;;;21.23;13.07;;;;;;;4.64;85.75;97632.97;5070865;28;20294;-65
2020/12/07 05:41:30;;;;;;;23.42;13.63;;;;;;;4.73;86.44;97633.19;5051262;28;20282;-66
2020/12/07 05:43:57;;;;;;;22.75;13.27;;;;;;;4.54;87.09;97638.88;5060511;28;20197;-66
2020/12/07 05:46:26;;;;;;;20.58;12.90;;;;;;;4.68;87.11;97650.44;5071105;28;20242;-66
2020/12/07 05:48:53;;;;;;;20.98;13.93;;;;;;;4.58;87.27;97644.88;5071586;28;20261;-65
2020/12/07 05:51:25;;;;;;;24.65;15.77;;;;;;;4.44;88.43;97645.75;5070968;28;20280;-65
2020/12/07 05:53:52;;;;;;;23.80;13.57;;;;;;;4.42;89.68;97654.81;5071398;28;20196;-66
2020/12/07 05:56:18;;;;;;;23.45;14.35;;;;;;;4.48;89.08;97657.09;5071367;28;20704;-65
2020/12/07 05:58:56;;;;;;;23.63;14.35;;;;;;;4.50;89.43;97656.03;5070847;28;20326;-65
2020/12/07 06:01:26;;;;;;;25.83;14.18;;;;;;;4.52;89.55;97659.47;5071000;28;20195;-66
2020/12/07 06:03:53;;;;;;;22.67;13.30;;;;;;;4.61;89.96;97660.63;5071225;28;20618;-67
2020/12/07 06:06:29;;;;;;;22.35;14.82;;;;;;;4.56;88.84;97662.75;5070883;28;20182;-66
2020/12/07 06:08:56;;;;;;;20.63;14.05;;;;;;;4.74;87.38;97656.22;5069795;28;20193;-67
2020/12/07 06:11:24;;;;;;;24.13;14.68;;;;;;;4.57;87.99;97669.81;5070790;28;20715;-66
2020/12/07 06:13:52;;;;;;;23.92;13.82;;;;;;;4.54;89.09;97667.31;5072468;28;20198;-66
2020/12/07 06:16:18;;;;;;;21.08;13.68;;;;;;;4.47;88.53;97672.19;5073439;28;20308;-65
2020/12/07 06:18:45;;;;;;;19.67;13.43;;;;;;;4.46;89.61;97673.16;5074232;28;20197;-65
2020/12/07 06:21:17;;;;;;;24.58;15.00;;;;;;;4.57;88.78;97670.66;5074699;28;20184;-67
2020/12/07 06:23:44;;;;;;;22.75;14.73;;;;;;;4.56;89.22;97674.28;5074732;28;20929;-66
2020/12/07 06:26:12;;;;;;;24.50;14.85;;;;;;;4.64;90.71;97679.13;5074116;28;20297;-67
2020/12/07 06:28:41;;;;;;;23.80;14.70;;;;;;;4.61;90.71;97676.63;5073897;28;20204;-67
2020/12/07 06:31:09;;;;;;;27.15;15.85;;;;;;;4.68;91.34;97675.31;5073870;28;20640;-65
2020/12/07 06:33:40;;;;;;;33.13;19.17;;;;;;;4.63;91.84;97673.88;5073216;28;20283;-66
2020/12/07 06:36:23;;;;;;;28.05;18.33;;;;;;;4.75;92.69;97681.94;5072120;28;20286;-65
2020/12/07 06:38:49;;;;;;;31.45;17.27;;;;;;;4.75;92.27;97689.94;5072723;28;20200;-66
2020/12/07 06:41:17;;;;;;;25.85;16.40;;;;;;;4.87;91.77;97695.44;5063739;28;20291;-66
2020/12/07 06:43:56;;;;;;;25.65;15.73;;;;;;;4.72;91.75;97700.78;5073570;28;20193;-66
2020/12/07 06:46:52;;;;;;;28.58;16.77;;;;;;;4.60;92.31;97699.78;5073940;28;20681;-66
2020/12/07 06:49:22;;;;;;;27.80;17.45;;;;;;;4.77;92.89;97705.81;5073078;28;20265;-65
2020/12/07 06:51:58;;;;;;;33.55;16.73;;;;;;;4.84;91.73;97709.84;5072051;28;20234;-66
2020/12/07 06:57:29;;;;;;;26.38;16.52;;;;;;;4.86;91.72;97712.38;5073071;28;20218;-66
2020/12/07 06:59:57;;;;;;;30.40;18.13;;;;;;;4.88;90.69;97713.97;5072937;28;20233;-66
2020/12/07 07:02:23;;;;;;;25.35;15.73;;;;;;;4.68;91.58;97709.97;5072453;28;20730;-66
2020/12/07 07:04:53;;;;;;;30.13;18.45;;;;;;;4.49;92.02;97717.41;5073588;28;20285;-66
2020/12/07 07:07:22;;;;;;;32.00;18.50;;;;;;;4.34;92.10;97714.78;5072781;28;20197;-66
2020/12/07 07:09:48;;;;;;;32.83;19.10;;;;;;;4.41;94.19;97722.34;5073221;28;20189;-65
2020/12/07 07:12:15;;;;;;;37.03;19.17;;;;;;;4.37;93.55;97724.38;5072773;28;20192;-66
2020/12/07 07:14:42;;;;;;;29.85;16.67;;;;;;;4.33;93.70;97728.19;5072775;28;20192;-66
2020/12/07 07:17:09;;;;;;;28.38;16.63;;;;;;;4.32;94.37;97732.66;5072947;28;20272;-66
2020/12/07 07:19:35;;;;;;;32.22;18.98;;;;;;;4.47;94.14;97728.16;5073342;28;20296;-65
2020/12/07 07:22:01;;;;;;;26.13;15.70;;;;;;;4.52;93.63;97735.88;5072831;28;20292;-66
2020/12/07 07:24:33;;;;;;;23.08;16.15;;;;;;;4.50;91.13;97732.44;5072390;28;20187;-66
2020/12/07 07:27:08;;;;;;;25.58;16.05;;;;;;;4.44;90.88;97733.69;5073183;28;20193;-66
2020/12/07 07:29:34;;;;;;;43.10;26.65;;;;;;;4.43;90.39;97736.44;5073091;28;20649;-66
2020/12/07 07:32:00;;;;;;;26.13;18.00;;;;;;;4.52;90.94;97738.53;5073266;28;20232;-65
2020/12/07 07:34:26;;;;;;;28.92;19.50;;;;;;;4.56;90.00;97734.72;5073365;28;20880;-66
2020/12/07 07:36:52;;;;;;;32.63;20.45;;;;;;;4.61;89.22;97735.28;5072684;28;20197;-65
2020/12/07 07:39:19;;;;;;;31.88;20.73;;;;;;;4.58;89.63;97740.81;5072846;28;20304;-66
2020/12/07 07:41:47;;;;;;;34.03;21.13;;;;;;;4.76;88.84;97738.78;5072599;28;20239;-65
2020/12/07 07:44:15;;;;;;;31.30;20.48;;;;;;;4.85;87.74;97742.69;5072197;28;20329;-64
2020/12/07 07:46:44;;;;;;;36.33;22.02;;;;;;;4.73;87.78;97744.31;5072600;28;20207;-65
2020/12/07 07:49:21;;;;;;;36.90;21.58;;;;;;;4.78;88.70;97744.88;5072485;28;20294;-64
2020/12/07 08:17:11;;;;;;;37.95;23.73;;;;;;;4.77;86.80;97769.81;5071851;28;20286;-66
2020/12/07 08:19:37;;;;;;;35.60;22.70;;;;;;;4.68;86.64;97773.06;5072274;28;20220;-66
2020/12/07 08:22:12;;;;;;;32.53;21.83;;;;;;;4.73;86.43;97776.31;5072122;28;20219;-65
2020/12/07 08:24:49;;;;;;;40.45;24.45;;;;;;;4.69;86.54;97780.97;5071771;28;20184;-66
2020/12/07 08:27:16;;;;;;;32.63;21.25;;;;;;;4.67;86.33;97785.53;5072052;28;20613;-65
2020/12/07 08:29:42;;;;;;;38.88;22.92;;;;;;;4.57;86.65;97789.75;5071707;28;20181;-65
2020/12/07 08:32:20;;;;;;;36.00;23.65;;;;;;;4.57;86.88;97789.75;5071654;28;20194;-65
2020/12/07 08:34:46;;;;;;;39.03;23.60;;;;;;;4.53;87.31;97786.41;5072099;28;20584;-65
2020/12/07 08:37:12;;;;;;;35.75;23.05;;;;;;;4.56;86.89;97793.34;5070386;28;20277;-65
2020/12/07 08:39:38;;;;;;;38.95;22.77;;;;;;;4.70;87.05;97796.00;5071813;28;20227;-65
2020/12/07 08:42:04;;;;;;;35.40;21.50;;;;;;;4.72;86.52;97802.09;5072136;28;20282;-66
2020/12/07 08:44:30;;;;;;;38.78;23.63;;;;;;;4.75;86.59;97806.41;5071555;28;20188;-66
2020/12/07 08:46:57;;;;;;;34.50;20.80;;;;;;;4.79;85.98;97806.13;5071959;28;20204;-65
2020/12/07 08:49:23;;;;;;;35.83;21.02;;;;;;;4.92;85.69;97803.50;5072078;28;20189;-65
2020/12/07 08:51:50;;;;;;;36.45;20.13;;;;;;;4.75;85.04;97798.41;5072023;28;20184;-65
2020/12/07 08:54:16;;;;;;;32.95;20.15;;;;;;;4.68;85.71;97807.72;5071423;28;20299;-65
2020/12/07 08:56:42;;;;;;;30.98;18.70;;;;;;;4.78;85.49;97808.88;5071246;28;20535;-65
2020/12/07 08:59:08;;;;;;;39.92;21.50;;;;;;;4.70;86.75;97806.66;5071484;28;20351;-65
2020/12/07 09:01:34;;;;;;;34.10;19.05;;;;;;;4.91;86.51;97806.28;5072191;28;20894;-64
2020/12/07 09:04:02;;;;;;;31.42;17.88;;;;;;;4.81;85.98;97816.66;5071513;28;20300;-65
2020/12/07 09:06:28;;;;;;;25.60;16.73;;;;;;;4.67;86.54;97824.69;5071602;28;20891;-65
2020/12/07 09:08:55;;;;;;;27.40;17.08;;;;;;;4.72;86.28;97823.44;5071170;28;20666;-65
2020/12/07 09:11:21;;;;;;;29.85;17.80;;;;;;;4.68;86.46;97819.25;5071738;28;20539;-66
2020/12/07 09:13:48;;;;;;;26.65;16.50;;;;;;;4.78;86.28;97820.38;5071158;28;20211;-65
2020/12/07 09:16:14;;;;;;;25.73;15.13;;;;;;;4.83;85.36;97821.91;5069505;28;20287;-66
2020/12/07 09:18:40;;;;;;;24.13;15.60;;;;;;;4.87;84.77;97821.63;5070910;28;20193;-65
2020/12/07 09:21:08;;;;;;;29.48;16.10;;;;;;;4.86;85.53;97819.91;5070821;28;20229;-66
2020/12/07 09:23:35;;;;;;;29.42;16.45;;;;;;;4.81;86.25;97820.19;5071065;28;20197;-65
2020/12/07 09:26:01;;;;;;;28.17;16.95;;;;;;;4.78;86.58;97820.38;5071384;28;20278;-66
2020/12/07 09:28:27;;;;;;;29.00;15.30;;;;;;;4.98;84.76;97834.28;5071082;28;20295;-67
2020/12/07 09:30:53;;;;;;;26.20;15.52;;;;;;;4.89;85.45;97830.38;5071352;28;20267;-65
2020/12/07 09:33:19;;;;;;;29.58;16.67;;;;;;;4.89;86.16;97826.88;5071077;28;20313;-65
2020/12/07 09:35:46;;;;;;;26.90;15.63;;;;;;;4.78;86.74;97828.38;5070934;28;20207;-66
2020/12/07 09:38:13;;;;;;;28.85;14.98;;;;;;;4.99;85.68;97830.66;5070864;28;20712;-65
2020/12/07 09:40:39;;;;;;;28.92;15.88;;;;;;;4.99;84.81;97835.97;5070944;28;20226;-66
2020/12/07 09:43:05;;;;;;;25.92;16.48;;;;;;;4.92;84.96;97834.66;5071123;28;20280;-66
2020/12/07 09:45:32;;;;;;;27.02;17.42;;;;;;;4.82;86.41;97834.41;5070821;28;20228;-65
2020/12/07 09:47:58;;;;;;;31.80;16.80;;;;;;;4.74;86.84;97837.53;5072687;28;20218;-65
2020/12/07 09:50:24;;;;;;;27.05;14.93;;;;;;;5.07;84.72;97843.50;5074826;28;20275;-65
2020/12/07 09:52:51;;;;;;;27.98;15.52;;;;;;;4.86;84.99;97835.91;5074967;28;20202;-65
2020/12/07 09:55:18;;;;;;;26.38;16.70;;;;;;;4.80;86.14;97852.28;5074455;28;20285;-65
2020/12/07 09:57:44;;;;;;;24.70;15.23;;;;;;;4.64;87.39;97847.06;5074813;28;20260;-66
2020/12/07 10:00:10;;;;;;;24.08;14.10;;;;;;;4.69;86.11;97841.44;5074260;28;20241;-65
2020/12/07 10:02:36;;;;;;;30.08;17.33;;;;;;;4.58;87.12;97850.94;5074638;28;20179;-66
2020/12/07 10:05:03;;;;;;;26.52;15.57;;;;;;;4.56;88.49;97850.19;5059326;28;20290;-66
2020/12/07 10:07:29;;;;;;;24.92;14.93;;;;;;;4.57;88.17;97846.56;5065596;28;20190;-70
2020/12/07 10:09:55;;;;;;;26.63;15.68;;;;;;;4.48;87.97;97846.28;5074885;28;20198;-65
2020/12/07 10:12:22;;;;;;;29.98;18.73;;;;;;;4.49;88.82;97840.00;5074687;28;20187;-65
2020/12/07 10:14:48;;;;;;;28.23;17.08;;;;;;;4.65;88.35;97839.91;5074553;28;20685;-65
2020/12/07 10:17:15;;;;;;;27.98;16.05;;;;;;;4.71;88.02;97826.22;5066099;28;20610;-67
2020/12/07 10:19:41;;;;;;;29.20;16.23;;;;;;;4.73;87.00;97829.63;5073642;28;20213;-65
2020/12/07 10:22:07;;;;;;;24.45;13.82;;;;;;;4.75;85.99;97830.41;5074501;28;20614;-65
2020/12/07 10:24:33;;;;;;;27.38;15.75;;;;;;;4.80;86.96;97825.63;5074146;28;20203;-65
2020/12/07 10:27:00;;;;;;;23.80;14.35;;;;;;;4.85;87.18;97826.19;5074632;28;20191;-66
2020/12/07 10:29:28;;;;;;;25.65;15.80;;;;;;;4.83;86.94;97829.91;5073745;28;20420;-66
2020/12/07 10:31:55;;;;;;;23.88;14.55;;;;;;;4.97;85.68;97828.06;5073835;28;20208;-65
2020/12/07 10:34:21;;;;;;;24.00;14.07;;;;;;;5.00;84.63;97830.56;5073297;28;20193;-65
2020/12/07 10:36:48;;;;;;;26.05;15.95;;;;;;;5.13;85.75;97832.44;5073729;28;20216;-65
2020/12/07 10:39:15;;;;;;;26.92;14.57;;;;;;;5.07;85.95;97831.03;5074413;28;20274;-66
2020/12/07 10:41:41;;;;;;;24.85;14.27;;;;;;;5.16;84.42;97830.44;5074195;28;20189;-66
2020/12/07 10:44:08;;;;;;;23.58;14.50;;;;;;;5.07;84.41;97823.03;5073762;28;20196;-65
2020/12/07 10:46:37;;;;;;;25.25;13.88;;;;;;;4.83;84.98;97829.91;5074280;28;20206;-66
2020/12/07 10:49:05;;;;;;;24.23;13.68;;;;;;;4.88;85.58;97825.13;5073642;28;20192;-65
2020/12/07 10:51:31;;;;;;;26.30;13.35;;;;;;;5.23;83.38;97826.41;5073463;28;20230;-66
2020/12/07 10:53:58;;;;;;;20.77;13.35;;;;;;;5.17;83.22;97826.78;5073099;28;20561;-65
2020/12/07 10:56:25;;;;;;;23.75;14.60;;;;;;;5.09;84.00;97825.56;5073756;28;20285;-65
2020/12/07 10:58:51;;;;;;;25.33;14.95;;;;;;;5.06;84.31;97823.97;5072828;28;20322;-66
2020/12/07 11:01:17;;;;;;;21.63;12.68;;;;;;;5.22;84.13;97823.81;5074010;28;20213;-65
2020/12/07 11:03:45;;;;;;;25.30;13.35;;;;;;;5.11;83.33;97819.22;5074069;28;21006;-66
2020/12/07 11:06:14;;;;;;;23.52;13.00;;;;;;;5.18;83.85;97812.53;5073598;28;20212;-66
2020/12/07 11:08:49;;;;;;;17.73;11.00;;;;;;;5.09;82.86;97814.91;5073539;28;20184;-65
2020/12/07 11:11:15;;;;;;;20.27;12.82;;;;;;;5.25;83.60;97810.31;5073147;28;20187;-65
2020/12/07 11:13:41;;;;;;;20.15;12.65;;;;;;;5.39;82.38;97806.75;5073404;28;20235;-66
2020/12/07 11:16:11;;;;;;;23.23;13.75;;;;;;;5.34;82.23;97816.88;5073093;28;20270;-65
2020/12/07 11:18:37;;;;;;;25.23;13.65;;;;;;;5.26;82.24;97806.66;5072834;28;20295;-66
2020/12/07 11:21:08;;;;;;;21.17;12.40;;;;;;;5.31;81.71;97809.03;5072950;28;20673;-66
2020/12/07 11:23:34;;;;;;;18.27;12.35;;;;;;;5.44;81.58;97807.28;5072341;28;20192;-65
2020/12/07 11:26:00;;;;;;;19.55;12.48;;;;;;;5.42;80.93;97803.84;5073037;28;20570;-65
2020/12/07 11:28:26;;;;;;;18.98;12.20;;;;;;;5.37;80.53;97814.84;5072969;28;20203;-65
2020/12/07 11:30:52;;;;;;;24.45;13.02;;;;;;;5.40;81.94;97801.31;5072942;28;20630;-65
2020/12/07 11:33:18;;;;;;;20.75;13.55;;;;;;;5.36;81.53;97802.47;5072652;28;20288;-66
2020/12/07 11:35:45;;;;;;;19.42;12.70;;;;;;;5.46;81.34;97802.69;5072430;28;20661;-66
2020/12/07 11:38:14;;;;;;;21.48;13.40;;;;;;;5.73;79.71;97802.69;5072436;28;20280;-66
2020/12/07 11:40:56;;;;;;;21.73;13.95;;;;;;;5.64;79.75;97790.78;5072747;28;20216;-66
2020/12/07 11:43:33;;;;;;;20.25;13.50;;;;;;;5.61;79.99;97795.50;5072387;28;20188;-65
2020/12/07 11:45:59;;;;;;;22.17;13.27;;;;;;;5.75;79.09;97790.09;5072342;28;20352;-65
2020/12/07 11:48:25;;;;;;;22.00;13.18;;;;;;;5.83;78.85;97789.56;5072250;28;20291;-65
2020/12/07 11:50:52;;;;;;;24.65;14.10;;;;;;;5.71;79.53;97793.91;5071976;28;20195;-65
2020/12/07 11:53:19;;;;;;;20.83;13.63;;;;;;;5.78;80.22;97794.34;5072553;28;20184;-65